createdAt,value
2018-07-20T00:01:32.168Z,5.97
2018-07-20T00:04:00.614Z,6.80
2018-07-20T00:06:29.002Z,6.20
2018-07-20T00:08:57.266Z,6.57
2018-07-20T00:11:25.550Z,6.70
2018-07-20T00:13:54.022Z,6.80
2018-07-20T00:16:22.297Z,7.07
2018-07-20T00:18:50.785Z,6.43
2018-07-20T00:21:19.062Z,6.67
2018-07-20T00:23:47.324Z,7.10
2018-07-20T00:26:15.600Z,6.10
2018-07-20T00:28:43.607Z,6.40
2018-07-20T00:31:12.054Z,7.10
2018-07-20T00:33:40.325Z,6.67
2018-07-20T00:36:08.609Z,6.40
2018-07-20T00:38:37.095Z,6.80
2018-07-20T00:41:05.469Z,6.53
2018-07-20T00:43:33.741Z,6.73
2018-07-20T00:46:02.026Z,6.30
2018-07-20T00:48:30.397Z,5.97
2018-07-20T00:50:58.764Z,6.27
2018-07-20T00:53:26.942Z,6.73
2018-07-20T00:55:55.326Z,6.60
2018-07-20T00:58:23.489Z,6.33
2018-07-20T01:00:51.680Z,6.63
2018-07-20T01:03:20.087Z,6.13
2018-07-20T01:05:48.408Z,6.57
2018-07-20T01:08:16.679Z,6.63
2018-07-20T01:10:45.074Z,6.47
2018-07-20T01:13:13.352Z,6.77
2018-07-20T01:15:41.938Z,6.37
2018-07-20T01:18:10.210Z,6.90
2018-07-20T01:20:38.590Z,7.20
2018-07-20T01:23:06.969Z,7.23
2018-07-20T01:25:35.225Z,7.30
2018-07-20T01:28:03.624Z,7.90
2018-07-20T01:30:32.002Z,7.03
2018-07-20T01:33:00.074Z,8.33
2018-07-20T01:35:28.334Z,7.60
2018-07-20T01:37:56.717Z,7.60
2018-07-20T01:40:24.651Z,7.50
2018-07-20T01:42:52.857Z,7.90
2018-07-20T01:45:21.341Z,7.77
2018-07-20T01:47:49.279Z,8.20
2018-07-20T01:50:17.792Z,8.13
2018-07-20T01:52:46.173Z,8.47
2018-07-20T01:55:14.651Z,8.40
2018-07-20T01:57:42.920Z,8.40
2018-07-20T02:00:11.605Z,8.37
2018-07-20T02:02:40.037Z,8.47
2018-07-20T02:05:08.569Z,8.73
2018-07-20T02:07:36.944Z,8.27
2018-07-20T02:10:05.217Z,8.47
2018-07-20T02:12:33.491Z,8.33
2018-07-20T02:15:01.777Z,8.50
2018-07-20T02:17:30.150Z,7.80
2018-07-20T02:19:58.536Z,8.43
2018-07-20T02:22:26.811Z,8.50
2018-07-20T02:24:55.278Z,9.10
2018-07-20T02:27:23.194Z,8.37
2018-07-20T02:29:51.642Z,8.53
2018-07-20T02:32:19.915Z,8.53
2018-07-20T02:34:48.091Z,8.10
2018-07-20T02:37:16.449Z,8.30
2018-07-20T02:39:44.742Z,8.60
2018-07-20T02:42:13.217Z,8.50
2018-07-20T02:44:41.482Z,7.80
2018-07-20T02:47:10.278Z,8.33
2018-07-20T02:49:38.557Z,7.83
2018-07-20T02:52:06.945Z,7.97
2018-07-20T02:54:35.311Z,8.33
2018-07-20T02:57:03.690Z,8.70
2018-07-20T02:59:31.949Z,8.20
2018-07-20T03:02:00.237Z,8.90
2018-07-20T03:04:28.622Z,8.33
2018-07-20T03:06:56.998Z,7.97
2018-07-20T03:09:25.380Z,9.00
2018-07-20T03:11:53.646Z,7.80
2018-07-20T03:14:22.021Z,8.07
2018-07-20T03:16:50.301Z,8.33
2018-07-20T03:19:18.569Z,8.20
2018-07-20T03:21:46.850Z,7.93
2018-07-20T03:24:15.222Z,8.20
2018-07-20T03:26:43.702Z,7.73
2018-07-20T03:29:11.980Z,7.93
2018-07-20T03:31:40.263Z,7.67
2018-07-20T03:34:08.640Z,8.40
2018-07-20T03:36:37.005Z,8.10
2018-07-20T03:39:07.385Z,7.77
2018-07-20T03:41:36.373Z,8.93
2018-07-20T03:44:04.531Z,7.80
2018-07-20T03:46:32.883Z,7.97
2018-07-20T03:49:01.217Z,7.50
2018-07-20T03:51:29.214Z,7.93
2018-07-20T03:53:57.394Z,8.03
2018-07-20T03:56:25.978Z,8.27
2018-07-20T03:58:54.302Z,8.77
2018-07-20T04:01:22.637Z,8.37
2018-07-20T04:03:50.802Z,8.90
2018-07-20T04:06:19.393Z,8.43
2018-07-20T04:08:47.771Z,8.87
2018-07-20T04:11:16.037Z,9.43
2018-07-20T04:13:44.313Z,9.50
2018-07-20T04:16:12.512Z,9.73
2018-07-20T04:18:40.761Z,9.37
2018-07-20T04:21:09.037Z,8.77
2018-07-20T04:23:37.422Z,10.83
2018-07-20T04:26:05.793Z,9.97
2018-07-20T04:28:34.177Z,10.00
2018-07-20T04:31:02.455Z,9.17
2018-07-20T04:33:30.824Z,10.20
2018-07-20T04:35:59.093Z,9.30
2018-07-20T04:38:27.376Z,10.27
2018-07-20T04:40:55.553Z,11.00
2018-07-20T04:43:23.473Z,12.10
2018-07-20T04:45:51.354Z,11.03
2018-07-20T04:48:19.666Z,11.33
2018-07-20T04:50:47.933Z,12.37
2018-07-20T04:53:16.209Z,12.20
2018-07-20T04:55:44.596Z,12.00
2018-07-20T04:58:12.961Z,11.20
2018-07-20T05:00:41.232Z,11.50
2018-07-20T05:03:09.521Z,11.90
2018-07-20T05:05:37.889Z,10.93
2018-07-20T05:08:06.345Z,9.80
2018-07-20T05:10:34.749Z,11.30
2018-07-20T05:13:02.929Z,9.77
2018-07-20T05:15:31.196Z,9.97
2018-07-20T05:17:59.405Z,10.37
2018-07-20T05:20:27.870Z,10.03
2018-07-20T05:22:56.238Z,10.97
2018-07-20T05:25:24.310Z,10.73
2018-07-20T05:27:52.889Z,9.47
2018-07-20T05:30:21.132Z,10.70
2018-07-20T05:32:49.095Z,11.17
2018-07-20T05:35:17.605Z,10.70
2018-07-20T05:37:45.972Z,10.20
2018-07-20T05:40:14.264Z,9.63
2018-07-20T05:42:42.534Z,10.23
2018-07-20T05:45:11.013Z,9.70
2018-07-20T05:47:39.198Z,9.63
2018-07-20T05:50:07.949Z,9.43
2018-07-20T05:52:36.353Z,9.87
2018-07-20T05:55:05.046Z,9.90
2018-07-20T05:57:33.517Z,9.60
2018-07-20T06:00:01.897Z,9.87
2018-07-20T06:02:30.179Z,9.77
2018-07-20T06:04:58.455Z,9.87
2018-07-20T06:07:30.389Z,9.23
2018-07-20T06:09:58.889Z,9.53
2018-07-20T06:12:27.097Z,10.23
2018-07-20T06:14:55.466Z,9.60
2018-07-20T06:17:23.812Z,10.20
2018-07-20T06:19:52.105Z,10.20
2018-07-20T06:22:20.478Z,9.80
2018-07-20T06:24:48.650Z,10.33
2018-07-20T06:27:17.159Z,9.73
2018-07-20T06:29:45.510Z,10.27
2018-07-20T06:32:13.873Z,9.80
2018-07-20T06:34:42.066Z,9.73
2018-07-20T06:37:10.546Z,10.20
2018-07-20T06:39:38.705Z,12.63
2018-07-20T06:42:07.106Z,11.03
2018-07-20T06:44:35.342Z,10.37
2018-07-20T06:47:03.862Z,10.03
2018-07-20T06:49:32.226Z,10.30
2018-07-20T06:52:00.502Z,10.13
2018-07-20T06:54:28.878Z,10.03
2018-07-20T06:56:57.153Z,9.40
2018-07-20T06:59:25.876Z,10.80
2018-07-20T07:01:54.534Z,9.97
2018-07-20T07:04:22.810Z,10.50
2018-07-20T07:06:50.766Z,10.53
2018-07-20T07:09:19.062Z,10.30
2018-07-20T07:11:47.422Z,9.40
2018-07-20T07:14:15.707Z,9.67
2018-07-20T07:16:43.980Z,10.20
2018-07-20T07:19:12.342Z,9.13
2018-07-20T07:21:40.598Z,9.37
2018-07-20T07:24:08.902Z,9.40
2018-07-20T07:26:37.399Z,9.57
2018-07-20T07:29:05.876Z,10.07
2018-07-20T07:31:34.230Z,10.10
2018-07-20T07:34:02.506Z,9.33
2018-07-20T07:36:30.781Z,9.77
2018-07-20T07:38:59.070Z,9.60
2018-07-20T07:41:27.446Z,8.80
2018-07-20T07:43:55.500Z,9.00
2018-07-20T07:46:23.430Z,7.87
2018-07-20T07:48:51.315Z,7.70
2018-07-20T07:51:19.242Z,8.53
2018-07-20T07:53:47.173Z,8.37
2018-07-20T07:56:15.555Z,7.80
2018-07-20T07:58:43.837Z,8.67
2018-07-20T08:01:12.197Z,8.00
2018-07-20T08:03:40.378Z,8.07
2018-07-20T08:06:08.766Z,8.13
2018-07-20T08:08:36.925Z,7.93
2018-07-20T08:11:05.418Z,8.47
2018-07-20T08:13:33.787Z,7.80
2018-07-20T08:16:02.061Z,8.23
2018-07-20T08:18:30.569Z,9.20
2018-07-20T08:20:59.025Z,8.47
2018-07-20T08:23:27.406Z,8.23
2018-07-20T08:25:55.377Z,8.43
2018-07-20T08:28:24.574Z,9.00
2018-07-20T08:30:52.850Z,8.53
2018-07-20T08:33:21.065Z,9.10
2018-07-20T08:35:49.503Z,9.23
2018-07-20T08:38:17.874Z,9.23
2018-07-20T08:40:46.165Z,7.93
2018-07-20T08:43:14.529Z,8.43
2018-07-20T08:45:42.805Z,8.80
2018-07-20T08:48:10.967Z,8.73
2018-07-20T08:50:39.255Z,7.80
2018-07-20T08:53:07.725Z,8.10
2018-07-20T08:55:35.942Z,8.77
2018-07-20T08:58:04.381Z,9.03
2018-07-20T09:00:32.562Z,8.40
2018-07-20T09:03:00.441Z,8.80
2018-07-20T09:05:28.301Z,9.33
2018-07-20T09:07:56.561Z,8.53
2018-07-20T09:10:24.834Z,8.70
2018-07-20T09:12:53.121Z,8.93
2018-07-20T09:15:21.497Z,10.90
2018-07-20T09:17:49.777Z,8.90
2018-07-20T09:20:17.840Z,9.47
2018-07-20T09:22:46.113Z,8.77
2018-07-20T09:25:14.211Z,8.40
2018-07-20T09:27:42.234Z,9.03
2018-07-20T09:30:10.633Z,8.23
2018-07-20T09:32:39.325Z,8.83
2018-07-20T09:35:07.512Z,8.47
2018-07-20T09:37:35.878Z,9.23
2018-07-20T09:40:04.564Z,8.90
2018-07-20T09:42:32.934Z,9.13
2018-07-20T09:45:01.206Z,10.10
2018-07-20T09:47:29.481Z,9.00
2018-07-20T09:49:57.653Z,8.93
2018-07-20T09:52:25.929Z,8.67
2018-07-20T09:54:54.317Z,8.83
2018-07-20T09:57:22.590Z,8.63
2018-07-20T09:59:50.922Z,8.70
2018-07-20T10:02:20.062Z,8.17
2018-07-20T10:04:48.344Z,8.40
2018-07-20T10:07:16.718Z,7.67
2018-07-20T10:09:45.000Z,8.63
2018-07-20T10:12:13.362Z,8.30
2018-07-20T10:14:41.750Z,8.00
2018-07-20T10:17:10.025Z,8.47
2018-07-20T10:19:38.392Z,8.07
2018-07-20T10:22:06.733Z,8.13
2018-07-20T10:24:35.149Z,8.67
2018-07-20T10:27:03.527Z,8.63
2018-07-20T10:29:31.793Z,8.47
2018-07-20T10:32:00.289Z,8.80
2018-07-20T10:34:28.549Z,8.07
2018-07-20T10:36:56.836Z,8.47
2018-07-20T10:39:25.041Z,7.87
2018-07-20T10:41:53.484Z,7.97
2018-07-20T10:44:22.074Z,9.27
2018-07-20T10:46:50.481Z,8.10
2018-07-20T10:49:18.829Z,8.50
2018-07-20T10:51:47.111Z,8.07
2018-07-20T10:54:14.929Z,7.23
2018-07-20T10:56:42.848Z,8.57
2018-07-20T10:59:10.742Z,7.37
2018-07-20T11:01:38.781Z,7.90
2018-07-20T11:04:06.566Z,7.63
2018-07-20T11:06:34.500Z,8.30
2018-07-20T11:09:02.633Z,7.13
2018-07-20T11:11:30.643Z,7.73
2018-07-20T11:13:58.542Z,7.40
2018-07-20T11:16:26.895Z,7.40
2018-07-20T11:18:55.376Z,7.73
2018-07-20T11:21:23.550Z,7.33
2018-07-20T11:23:51.813Z,8.47
2018-07-20T11:26:19.692Z,7.50
2018-07-20T11:28:47.580Z,7.47
2018-07-20T11:31:16.031Z,7.20
2018-07-20T11:33:44.208Z,7.67
2018-07-20T11:36:12.573Z,7.20
2018-07-20T11:38:40.862Z,7.40
2018-07-20T11:41:09.230Z,7.27
2018-07-20T11:43:37.500Z,7.37
2018-07-20T11:46:05.994Z,6.80
2018-07-20T11:48:33.845Z,7.17
2018-07-20T11:51:02.238Z,7.43
2018-07-20T11:53:30.505Z,7.93
2018-07-20T11:55:58.422Z,8.23
2018-07-20T11:58:26.757Z,7.10
2018-07-20T12:00:55.126Z,6.40
2018-07-20T12:03:23.102Z,7.37
2018-07-20T12:05:51.369Z,7.03
2018-07-20T12:08:19.654Z,7.20
2018-07-20T12:10:48.030Z,7.00
2018-07-20T12:13:16.311Z,6.53
2018-07-20T12:15:44.585Z,6.50
2018-07-20T12:18:12.869Z,7.03
2018-07-20T12:20:41.226Z,6.33
2018-07-20T12:23:09.492Z,6.17
2018-07-20T12:25:37.877Z,5.97
2018-07-20T12:28:06.250Z,5.77
2018-07-20T12:30:34.540Z,6.70
2018-07-20T12:33:03.009Z,6.53
2018-07-20T12:35:30.897Z,6.50
2018-07-20T12:37:59.154Z,5.60
2018-07-20T12:40:27.442Z,6.37
2018-07-20T12:42:55.614Z,6.37
2018-07-20T12:45:23.989Z,6.10
2018-07-20T12:47:52.366Z,5.77
2018-07-20T12:50:20.695Z,6.30
2018-07-20T12:52:49.114Z,5.73
2018-07-20T12:55:17.398Z,6.40
2018-07-20T12:57:45.661Z,6.17
2018-07-20T13:00:13.954Z,6.30
2018-07-20T13:02:42.226Z,6.10
2018-07-20T13:05:10.613Z,6.37
2018-07-20T13:07:38.866Z,6.17
2018-07-20T13:10:07.258Z,6.33
2018-07-20T13:12:35.513Z,5.97
2018-07-20T13:15:04.513Z,6.43
2018-07-20T13:17:32.993Z,6.33
2018-07-20T13:20:01.390Z,5.90
2018-07-20T13:22:29.216Z,5.90
2018-07-20T13:24:57.574Z,6.07
2018-07-20T13:27:25.693Z,6.50
2018-07-20T13:29:53.657Z,7.23
2018-07-20T13:32:21.855Z,7.93
2018-07-20T13:34:50.204Z,7.97
2018-07-20T13:37:18.594Z,8.23
2018-07-20T13:39:46.874Z,8.13
2018-07-20T13:42:15.342Z,8.03
2018-07-20T13:44:43.599Z,9.07
2018-07-20T13:47:11.790Z,9.67
2018-07-20T13:49:40.065Z,8.77
2018-07-20T13:52:08.343Z,8.50
2018-07-20T13:54:36.512Z,8.60
2018-07-20T13:57:04.889Z,9.57
2018-07-20T13:59:33.074Z,7.13
2018-07-20T14:02:00.897Z,8.53
2018-07-20T14:04:29.110Z,8.43
2018-07-20T14:06:57.636Z,9.37
2018-07-20T14:09:25.470Z,8.73
2018-07-20T14:11:53.828Z,8.90
2018-07-20T14:14:22.114Z,8.20
2018-07-20T14:16:50.505Z,8.73
2018-07-20T14:19:18.653Z,8.07
2018-07-20T14:21:47.038Z,8.37
2018-07-20T14:24:15.310Z,8.23
2018-07-20T14:26:43.696Z,8.37
2018-07-20T14:29:12.078Z,7.97
2018-07-20T14:31:40.578Z,7.53
2018-07-20T14:34:08.713Z,7.53
2018-07-20T14:36:36.892Z,7.53
2018-07-20T14:39:08.851Z,7.77
2018-07-20T14:41:37.128Z,7.37
2018-07-20T14:44:05.618Z,7.40
2018-07-20T14:46:33.890Z,6.63
2018-07-20T14:49:02.269Z,7.60
2018-07-20T14:51:30.637Z,7.83
2018-07-20T14:53:58.917Z,8.27
2018-07-20T14:56:27.289Z,7.67
2018-07-20T14:58:55.553Z,7.40
2018-07-20T15:01:23.869Z,8.37
2018-07-20T15:03:52.229Z,7.97
2018-07-20T15:06:20.494Z,7.00
2018-07-20T15:08:48.765Z,7.03
2018-07-20T15:11:16.646Z,7.20
2018-07-20T15:13:44.922Z,7.03
2018-07-20T15:16:13.194Z,7.93
2018-07-20T15:18:41.197Z,7.33
2018-07-20T15:21:09.637Z,6.63
2018-07-20T15:23:37.810Z,5.83
2018-07-20T15:26:05.882Z,6.13
2018-07-20T15:28:34.162Z,6.17
2018-07-20T15:31:02.437Z,5.90
2018-07-20T15:33:30.704Z,5.80
2018-07-20T15:35:59.081Z,6.10
2018-07-20T15:38:27.366Z,6.00
2018-07-20T15:40:55.182Z,5.67
2018-07-20T15:43:23.396Z,5.87
2018-07-20T15:46:05.767Z,5.50
2018-07-20T15:48:19.754Z,5.43
2018-07-20T15:50:48.026Z,5.53
2018-07-20T15:53:43.351Z,5.80
2018-07-20T15:55:44.473Z,5.50
2018-07-20T15:58:12.767Z,5.17
2018-07-20T16:00:41.016Z,5.30
2018-07-20T16:03:09.196Z,5.93
2018-07-20T16:05:37.408Z,5.43
2018-07-20T16:08:05.651Z,5.80
2018-07-20T16:10:34.045Z,5.10
2018-07-20T16:13:01.897Z,5.43
2018-07-20T16:15:30.280Z,5.43
2018-07-20T16:17:58.651Z,5.80
2018-07-20T16:20:27.089Z,5.70
2018-07-20T16:22:55.302Z,5.93
2018-07-20T16:25:23.674Z,5.87
2018-07-20T16:27:52.061Z,5.73
2018-07-20T16:30:19.942Z,5.80
2018-07-20T16:32:47.790Z,5.63
2018-07-20T16:35:16.028Z,5.77
2018-07-20T16:37:44.237Z,5.93
2018-07-20T16:40:12.114Z,5.93
2018-07-20T16:42:39.952Z,6.10
2018-07-20T16:45:08.347Z,5.90
2018-07-20T16:47:36.613Z,5.73
2018-07-20T16:50:05.147Z,7.13
2018-07-20T16:52:33.023Z,7.63
2018-07-20T16:55:00.862Z,7.20
2018-07-20T16:57:28.789Z,6.77
2018-07-20T16:59:56.634Z,6.50
2018-07-20T17:02:24.489Z,7.03
2018-07-20T17:04:52.366Z,6.40
2018-07-20T17:07:20.206Z,6.30
2018-07-20T17:09:48.042Z,6.83
2018-07-20T17:12:15.872Z,7.20
2018-07-20T17:14:43.758Z,6.60
2018-07-20T17:17:11.602Z,8.00
2018-07-20T17:19:39.572Z,7.83
2018-07-20T17:22:07.462Z,8.27
2018-07-20T17:24:35.277Z,6.90
2018-07-20T17:27:03.340Z,6.40
2018-07-20T17:29:31.198Z,6.67
2018-07-20T17:31:59.090Z,6.70
2018-07-20T17:34:26.950Z,6.40
2018-07-20T17:36:54.798Z,6.77
2018-07-20T17:39:22.725Z,6.30
2018-07-20T17:41:50.542Z,6.03
2018-07-20T17:44:18.357Z,5.73
2018-07-20T17:46:46.244Z,5.53
2018-07-20T17:49:14.091Z,6.30
2018-07-20T17:51:41.962Z,6.50
2018-07-20T17:54:09.994Z,6.07
2018-07-20T17:56:37.837Z,6.17
2018-07-20T17:59:05.665Z,5.80
2018-07-20T18:01:33.681Z,5.40
2018-07-20T18:04:01.534Z,5.83
2018-07-20T18:06:29.361Z,5.70
2018-07-20T18:08:57.216Z,6.03
2018-07-20T18:11:25.073Z,6.13
2018-07-20T18:13:52.917Z,5.70
2018-07-20T18:16:21.070Z,6.30
2018-07-20T18:18:48.889Z,6.27
2018-07-20T18:21:16.738Z,5.97
2018-07-20T18:23:44.684Z,5.90
2018-07-20T18:26:12.525Z,5.90
2018-07-20T18:28:40.371Z,6.30
2018-07-20T18:31:08.305Z,6.00
2018-07-20T18:33:36.238Z,6.33
2018-07-20T18:36:04.153Z,6.40
2018-07-20T18:38:32.010Z,6.50
2018-07-20T18:40:59.841Z,6.87
2018-07-20T18:43:27.677Z,6.43
2018-07-20T18:45:55.654Z,6.70
2018-07-20T18:48:23.578Z,6.70
2018-07-20T18:50:52.071Z,7.93
2018-07-20T18:53:20.334Z,7.47
2018-07-20T18:55:48.199Z,6.53
2018-07-20T18:58:16.030Z,6.40
2018-07-20T19:00:43.875Z,6.60
2018-07-20T19:03:12.114Z,6.70
2018-07-20T19:05:40.383Z,6.27
2018-07-20T19:08:08.330Z,5.90
2018-07-20T19:10:36.840Z,6.07
2018-07-20T19:13:05.214Z,6.87
2018-07-20T19:15:33.389Z,7.07
2018-07-20T19:18:01.560Z,6.00
2018-07-20T19:20:29.834Z,7.03
2018-07-20T19:22:58.101Z,6.87
2018-07-20T19:25:26.387Z,6.27
2018-07-20T19:27:54.661Z,7.87
2018-07-20T19:30:23.025Z,6.60
2018-07-20T19:32:51.214Z,6.57
2018-07-20T19:35:19.490Z,6.80
2018-07-20T19:37:47.867Z,6.13
2018-07-20T19:40:15.751Z,5.83
2018-07-20T19:42:44.000Z,6.60
2018-07-20T19:45:12.183Z,6.50
2018-07-20T19:47:40.449Z,6.53
2018-07-20T19:50:08.833Z,7.33
2018-07-20T19:52:37.101Z,6.47
2018-07-20T19:55:05.486Z,6.63
2018-07-20T19:57:33.662Z,6.87
2018-07-20T20:00:02.039Z,6.80
2018-07-20T20:02:30.296Z,7.07
2018-07-20T20:04:58.476Z,7.13
2018-07-20T20:07:26.757Z,11.80
2018-07-20T20:09:55.129Z,7.80
2018-07-20T20:12:23.413Z,7.43
2018-07-20T20:14:51.792Z,7.87
2018-07-20T20:17:19.966Z,7.63
2018-07-20T20:19:48.336Z,7.20
2018-07-20T20:22:16.712Z,7.63
2018-07-20T20:24:45.094Z,7.43
2018-07-20T20:27:13.169Z,8.00
2018-07-20T20:29:41.439Z,7.97
2018-07-20T20:32:09.850Z,9.00
2018-07-20T20:34:38.152Z,8.87
2018-07-20T20:37:06.586Z,7.90
2018-07-20T20:39:34.753Z,8.03
2018-07-20T20:42:02.626Z,9.60
2018-07-20T20:44:30.894Z,14.27
2018-07-20T20:46:59.266Z,8.03
2018-07-20T20:49:27.118Z,7.73
2018-07-20T20:51:55.505Z,8.27
2018-07-20T20:54:23.681Z,8.37
2018-07-20T20:56:51.853Z,8.27
2018-07-20T20:59:20.183Z,8.23
2018-07-20T21:01:48.406Z,8.30
2018-07-20T21:04:16.703Z,8.33
2018-07-20T21:06:44.953Z,8.23
2018-07-20T21:09:13.225Z,7.90
2018-07-20T21:11:41.556Z,9.53
2018-07-20T21:14:09.785Z,8.70
2018-07-20T21:16:38.058Z,7.87
2018-07-20T21:19:06.230Z,8.00
2018-07-20T21:21:34.094Z,8.30
2018-07-20T21:24:02.581Z,8.00
2018-07-20T21:26:30.845Z,8.13
2018-07-20T21:28:59.124Z,8.10
2018-07-20T21:31:27.501Z,8.13
2018-07-20T21:33:55.985Z,7.90
2018-07-20T21:36:24.157Z,8.30
2018-07-20T21:38:53.566Z,8.13
2018-07-20T21:41:21.741Z,8.47
2018-07-20T21:43:49.901Z,8.50
2018-07-20T21:46:18.284Z,8.33
2018-07-20T21:48:46.691Z,9.80
2018-07-20T21:51:14.933Z,8.10
2018-07-20T21:53:43.209Z,8.07
2018-07-20T21:56:11.382Z,7.20
2018-07-20T21:58:39.756Z,7.63
2018-07-20T22:01:07.896Z,8.03
2018-07-20T22:03:36.114Z,7.73
2018-07-20T22:06:04.391Z,7.90
2018-07-20T22:08:32.469Z,7.57
2018-07-20T22:11:00.832Z,7.80
2018-07-20T22:13:29.217Z,7.80
2018-07-20T22:15:57.382Z,7.77
2018-07-20T22:18:25.258Z,8.27
2018-07-20T22:20:53.068Z,7.90
2018-07-20T22:23:21.361Z,7.50
2018-07-20T22:25:49.769Z,7.37
2018-07-20T22:28:17.950Z,7.27
2018-07-20T22:30:46.218Z,7.80
2018-07-20T22:33:14.607Z,7.47
2018-07-20T22:35:42.869Z,7.80
2018-07-20T22:38:11.029Z,7.93
2018-07-20T22:40:38.874Z,8.10
2018-07-20T22:43:07.194Z,7.27
2018-07-20T22:45:35.461Z,7.93
2018-07-20T22:48:03.519Z,7.60
2018-07-20T22:50:31.705Z,8.00
2018-07-20T22:53:00.082Z,8.03
2018-07-20T22:55:28.355Z,7.93
2018-07-20T22:57:56.633Z,7.57
2018-07-20T23:00:25.010Z,7.77
2018-07-20T23:02:53.208Z,7.60
2018-07-20T23:05:21.464Z,7.60
2018-07-20T23:07:49.734Z,7.03
2018-07-20T23:10:17.909Z,7.40
2018-07-20T23:12:46.303Z,7.17
2018-07-20T23:15:14.670Z,7.37
2018-07-20T23:17:43.041Z,6.97
2018-07-20T23:20:11.413Z,7.27
2018-07-20T23:22:39.596Z,7.37
2018-07-20T23:25:07.873Z,7.43
2018-07-20T23:27:36.037Z,7.07
2018-07-20T23:30:04.839Z,7.00
2018-07-20T23:32:33.101Z,7.70
2018-07-20T23:35:01.393Z,7.70
2018-07-20T23:37:29.881Z,7.13
2018-07-20T23:39:58.030Z,7.53
2018-07-20T23:42:26.306Z,7.30
2018-07-20T23:44:54.589Z,6.50
2018-07-20T23:47:22.853Z,6.90
2018-07-20T23:49:50.988Z,7.17
2018-07-20T23:52:19.296Z,7.10
2018-07-20T23:54:47.581Z,7.13
2018-07-20T23:57:15.854Z,7.00
2018-07-20T23:59:44.053Z,7.47
